sensor_id;sensor_type;location;lat;lon;timestamp;pressure;altitude;pressure_sealevel;temperature;humidity
53932;BME280;39844;52.496;13.482;2023-03-22T00:01:10;100995.38;;;10.07;100.00
53932;BME280;39844;52.496;13.482;2023-03-22T00:03:36;100992.75;;;10.03;100.00
53932;BME280;39844;52.496;13.482;2023-03-22T00:06:02;100988.38;;;10.00;100.00
53932;BME280;39844;52.496;13.482;2023-03-22T00:08:28;100993.59;;;9.94;100.00
53932;BME280;39844;52.496;13.482;2023-03-22T00:10:53;100988.38;;;9.91;100.00
53932;BME280;39844;52.496;13.482;2023-03-22T00:13:18;100997.09;;;9.86;100.00
53932;BME280;39844;52.496;13.482;2023-03-22T00:15:44;100997.94;;;9.83;100.00
53932;BME280;39844;52.496;13.482;2023-03-22T00:18:10;100990.94;;;9.78;100.00
53932;BME280;39844;52.496;13.482;2023-03-22T00:20:35;100987.44;;;9.76;100.00
53932;BME280;39844;52.496;13.482;2023-03-22T00:23:00;100984.81;;;9.73;100.00
53932;BME280;39844;52.496;13.482;2023-03-22T00:25:26;100986.53;;;9.69;100.00
53932;BME280;39844;52.496;13.482;2023-03-22T00:27:51;100985.66;;;9.69;100.00
53932;BME280;39844;52.496;13.482;2023-03-22T00:30:16;100975.16;;;9.64;100.00
53932;BME280;39844;52.496;13.482;2023-03-22T00:32:42;100980.38;;;9.61;100.00
53932;BME280;39844;52.496;13.482;2023-03-22T00:35:08;100972.53;;;9.58;100.00
53932;BME280;39844;52.496;13.482;2023-03-22T00:37:35;100972.50;;;9.55;100.00
53932;BME280;39844;52.496;13.482;2023-03-22T00:40:00;100974.25;;;9.53;100.00
53932;BME280;39844;52.496;13.482;2023-03-22T00:42:25;100977.72;;;9.52;100.00
53932;BME280;39844;52.496;13.482;2023-03-22T00:44:51;100969.88;;;9.50;100.00
53932;BME280;39844;52.496;13.482;2023-03-22T00:47:16;100969.00;;;9.50;100.00
53932;BME280;39844;52.496;13.482;2023-03-22T00:49:41;100968.97;;;9.47;100.00
53932;BME280;39844;52.496;13.482;2023-03-22T00:52:07;100961.97;;;9.46;100.00
53932;BME280;39844;52.496;13.482;2023-03-22T00:54:32;100963.72;;;9.48;100.00
53932;BME280;39844;52.496;13.482;2023-03-22T00:56:57;100953.25;;;9.51;100.00
53932;BME280;39844;52.496;13.482;2023-03-22T00:59:22;100965.50;;;9.54;100.00
53932;BME280;39844;52.496;13.482;2023-03-22T01:01:48;100964.63;;;9.53;100.00
53932;BME280;39844;52.496;13.482;2023-03-22T01:04:13;100967.25;;;9.52;100.00
53932;BME280;39844;52.496;13.482;2023-03-22T01:06:38;100971.59;;;9.51;100.00
53932;BME280;39844;52.496;13.482;2023-03-22T01:09:04;100971.63;;;9.53;100.00
53932;BME280;39844;52.496;13.482;2023-03-22T01:11:29;100960.25;;;9.52;100.00
53932;BME280;39844;52.496;13.482;2023-03-22T01:13:54;100961.13;;;9.51;100.00
53932;BME280;39844;52.496;13.482;2023-03-22T01:16:20;100963.75;;;9.50;100.00
53932;BME280;39844;52.496;13.482;2023-03-22T01:18:45;100952.38;;;9.46;100.00
53932;BME280;39844;52.496;13.482;2023-03-22T01:21:10;100957.63;;;9.45;100.00
53932;BME280;39844;52.496;13.482;2023-03-22T01:23:37;100951.50;;;9.43;100.00
53932;BME280;39844;52.496;13.482;2023-03-22T01:26:03;100953.22;;;9.41;100.00
53932;BME280;39844;52.496;13.482;2023-03-22T01:28:28;100951.47;;;9.41;100.00
53932;BME280;39844;52.496;13.482;2023-03-22T01:30:54;100954.13;;;9.43;100.00
53932;BME280;39844;52.496;13.482;2023-03-22T01:36:22;100941.00;;;9.44;100.00
53932;BME280;39844;52.496;13.482;2023-03-22T01:38:48;100945.38;;;9.44;100.00
53932;BME280;39844;52.496;13.482;2023-03-22T01:41:15;100930.53;;;9.46;100.00
53932;BME280;39844;52.496;13.482;2023-03-22T01:43:40;100929.66;;;9.44;100.00
53932;BME280;39844;52.496;13.482;2023-03-22T01:46:05;100935.78;;;9.44;100.00
53932;BME280;39844;52.496;13.482;2023-03-22T01:51:24;100920.06;;;9.43;100.00
53932;BME280;39844;52.496;13.482;2023-03-22T01:53:59;100920.91;;;9.43;100.00
53932;BME280;39844;52.496;13.482;2023-03-22T01:56:27;100913.94;;;9.44;100.00
53932;BME280;39844;52.496;13.482;2023-03-22T01:58:54;100914.81;;;9.46;100.00
53932;BME280;39844;52.496;13.482;2023-03-22T02:01:20;100913.06;;;9.43;100.00
53932;BME280;39844;52.496;13.482;2023-03-22T02:06:26;100909.59;;;9.43;100.00
53932;BME280;39844;52.496;13.482;2023-03-22T02:08:52;100910.44;;;9.42;100.00
53932;BME280;39844;52.496;13.482;2023-03-22T02:11:25;100917.41;;;9.38;100.00
53932;BME280;39844;52.496;13.482;2023-03-22T02:13:56;100908.66;;;9.36;100.00
53932;BME280;39844;52.496;13.482;2023-03-22T02:16:38;100902.53;;;9.30;100.00
53932;BME280;39844;52.496;13.482;2023-03-22T02:44:26;100901.63;;;9.20;100.00
53932;BME280;39844;52.496;13.482;2023-03-22T02:47:04;100899.00;;;9.19;100.00
53932;BME280;39844;52.496;13.482;2023-03-22T02:49:36;100898.97;;;9.16;100.00
53932;BME280;39844;52.496;13.482;2023-03-22T02:52:23;100897.25;;;9.15;100.00
53932;BME280;39844;52.496;13.482;2023-03-22T02:57:33;100902.44;;;9.09;100.00
53932;BME280;39844;52.496;13.482;2023-03-22T03:00:04;100891.94;;;9.06;100.00
53932;BME280;39844;52.496;13.482;2023-03-22T03:02:31;100886.69;;;9.03;100.00
53932;BME280;39844;52.496;13.482;2023-03-22T03:04:56;100885.81;;;8.99;100.00
53932;BME280;39844;52.496;13.482;2023-03-22T03:07:25;100884.06;;;8.97;100.00
53932;BME280;39844;52.496;13.482;2023-03-22T03:09:51;100881.41;;;8.94;100.00
53932;BME280;39844;52.496;13.482;2023-03-22T03:12:20;100882.28;;;8.91;100.00
53932;BME280;39844;52.496;13.482;2023-03-22T03:14:47;100881.38;;;8.87;100.00
53932;BME280;39844;52.496;13.482;2023-03-22T03:17:50;100870.88;;;8.81;100.00
53932;BME280;39844;52.496;13.482;2023-03-22T03:20:26;100890.06;;;8.80;100.00
53932;BME280;39844;52.496;13.482;2023-03-22T03:26:41;100893.53;;;8.76;100.00
53932;BME280;39844;52.496;13.482;2023-03-22T03:29:25;100891.75;;;8.72;100.00
53932;BME280;39844;52.496;13.482;2023-03-22T03:32:09;100898.69;;;8.67;100.00
53932;BME280;39844;52.496;13.482;2023-03-22T03:34:42;100895.22;;;8.64;100.00
53932;BME280;39844;52.496;13.482;2023-03-22T03:37:15;100896.06;;;8.61;100.00
53932;BME280;39844;52.496;13.482;2023-03-22T03:39:47;100903.91;;;8.61;100.00
53932;BME280;39844;52.496;13.482;2023-03-22T03:42:16;100902.16;;;8.60;100.00
53932;BME280;39844;52.496;13.482;2023-03-22T03:44:42;100903.03;;;8.61;100.00
53932;BME280;39844;52.496;13.482;2023-03-22T03:47:09;100902.16;;;8.60;100.00
53932;BME280;39844;52.496;13.482;2023-03-22T03:49:35;100896.03;;;8.58;100.00
53932;BME280;39844;52.496;13.482;2023-03-22T03:52:00;100894.28;;;8.57;100.00
53932;BME280;39844;52.496;13.482;2023-03-22T03:54:25;100894.25;;;8.54;100.00
53932;BME280;39844;52.496;13.482;2023-03-22T03:56:51;100898.59;;;8.52;100.00
53932;BME280;39844;52.496;13.482;2023-03-22T03:59:17;100900.34;;;8.50;100.00
53932;BME280;39844;52.496;13.482;2023-03-22T04:01:44;100892.47;;;8.47;100.00
53932;BME280;39844;52.496;13.482;2023-03-22T04:04:09;100894.19;;;8.47;100.00
53932;BME280;39844;52.496;13.482;2023-03-22T04:06:34;100894.19;;;8.47;100.00
53932;BME280;39844;52.496;13.482;2023-03-22T04:08:59;100892.47;;;8.46;100.00
53932;BME280;39844;52.496;13.482;2023-03-22T04:11:25;100882.88;;;8.46;100.00
53932;BME280;39844;52.496;13.482;2023-03-22T04:13:50;100887.22;;;8.46;100.00
53932;BME280;39844;52.496;13.482;2023-03-22T04:16:15;100882.88;;;8.46;100.00
53932;BME280;39844;52.496;13.482;2023-03-22T04:18:41;100892.47;;;8.47;100.00
53932;BME280;39844;52.496;13.482;2023-03-22T04:21:06;100895.09;;;8.49;100.00
53932;BME280;39844;52.496;13.482;2023-03-22T04:23:31;100888.09;;;8.49;100.00
53932;BME280;39844;52.496;13.482;2023-03-22T04:25:56;100889.88;;;8.52;100.00
53932;BME280;39844;52.496;13.482;2023-03-22T04:28:22;100902.09;;;8.51;100.00
53932;BME280;39844;52.496;13.482;2023-03-22T04:30:47;100902.94;;;8.52;100.00
53932;BME280;39844;52.496;13.482;2023-03-22T04:33:12;100893.38;;;8.52;100.00
53932;BME280;39844;52.496;13.482;2023-03-22T04:35:38;100896.00;;;8.54;100.00
53932;BME280;39844;52.496;13.482;2023-03-22T04:38:03;100896.00;;;8.55;100.00
53932;BME280;39844;52.496;13.482;2023-03-22T04:40:28;100891.63;;;8.54;100.00
53932;BME280;39844;52.496;13.482;2023-03-22T04:42:53;100893.41;;;8.54;100.00
53932;BME280;39844;52.496;13.482;2023-03-22T04:45:19;100893.41;;;8.54;100.00
53932;BME280;39844;52.496;13.482;2023-03-22T04:47:44;100893.38;;;8.52;100.00
53932;BME280;39844;52.496;13.482;2023-03-22T04:50:10;100889.03;;;8.51;100.00
53932;BME280;39844;52.496;13.482;2023-03-22T04:52:35;100888.09;;;8.49;100.00
53932;BME280;39844;52.496;13.482;2023-03-22T04:55:00;100880.25;;;8.49;100.00
53932;BME280;39844;52.496;13.482;2023-03-22T04:57:26;100889.84;;;8.47;100.00
53932;BME280;39844;52.496;13.482;2023-03-22T04:59:51;100882.00;;;8.47;100.00
53932;BME280;39844;52.496;13.482;2023-03-22T05:02:16;100874.16;;;8.47;100.00
53932;BME280;39844;52.496;13.482;2023-03-22T05:04:41;100872.41;;;8.48;100.00
53932;BME280;39844;52.496;13.482;2023-03-22T05:07:07;100866.31;;;8.47;100.00
53932;BME280;39844;52.496;13.482;2023-03-22T05:09:32;100875.91;;;8.48;100.00
53932;BME280;39844;52.496;13.482;2023-03-22T05:11:57;100860.22;;;8.50;100.00
53932;BME280;39844;52.496;13.482;2023-03-22T05:14:23;100863.72;;;8.50;100.00
53932;BME280;39844;52.496;13.482;2023-03-22T05:16:48;100861.09;;;8.50;100.00
53932;BME280;39844;52.496;13.482;2023-03-22T05:19:13;100855.00;;;8.51;100.00
53932;BME280;39844;52.496;13.482;2023-03-22T05:21:40;100854.13;;;8.52;100.00
53932;BME280;39844;52.496;13.482;2023-03-22T05:24:06;100861.13;;;8.55;100.00
53932;BME280;39844;52.496;13.482;2023-03-22T05:26:32;100863.75;;;8.56;100.00
53932;BME280;39844;52.496;13.482;2023-03-22T05:28:57;100856.75;;;8.57;100.00
53932;BME280;39844;52.496;13.482;2023-03-22T05:31:23;100859.38;;;8.57;100.00
53932;BME280;39844;52.496;13.482;2023-03-22T05:33:49;100862.88;;;8.57;100.00
53932;BME280;39844;52.496;13.482;2023-03-22T05:36:19;100865.50;;;8.57;100.00
53932;BME280;39844;52.496;13.482;2023-03-22T05:38:45;100869.00;;;8.56;100.00
53932;BME280;39844;52.496;13.482;2023-03-22T05:41:11;100862.00;;;8.57;100.00
53932;BME280;39844;52.496;13.482;2023-03-22T05:43:37;100864.63;;;8.57;100.00
53932;BME280;39844;52.496;13.482;2023-03-22T05:46:07;100865.50;;;8.57;100.00
53932;BME280;39844;52.496;13.482;2023-03-22T05:48:33;100862.03;;;8.58;100.00
53932;BME280;39844;52.496;13.482;2023-03-22T05:50:58;100857.66;;;8.60;100.00
53932;BME280;39844;52.496;13.482;2023-03-22T05:53:24;100861.16;;;8.61;100.00
53932;BME280;39844;52.496;13.482;2023-03-22T05:55:49;100858.53;;;8.62;100.00
53932;BME280;39844;52.496;13.482;2023-03-22T05:58:14;100862.06;;;8.64;100.00
53932;BME280;39844;52.496;13.482;2023-03-22T06:00:39;100849.88;;;8.66;100.00
53932;BME280;39844;52.496;13.482;2023-03-22T06:03:05;100852.47;;;8.66;100.00
53932;BME280;39844;52.496;13.482;2023-03-22T06:05:31;100849.00;;;8.69;100.00
53932;BME280;39844;52.496;13.482;2023-03-22T06:07:57;100855.13;;;8.69;100.00
53932;BME280;39844;52.496;13.482;2023-03-22T06:10:23;100856.84;;;8.70;100.00
53932;BME280;39844;52.496;13.482;2023-03-22T06:12:48;100845.53;;;8.73;100.00
53932;BME280;39844;52.496;13.482;2023-03-22T06:15:14;100850.78;;;8.74;100.00
53932;BME280;39844;52.496;13.482;2023-03-22T06:17:39;100851.66;;;8.76;100.00
53932;BME280;39844;52.496;13.482;2023-03-22T06:20:05;100851.66;;;8.78;100.00
53932;BME280;39844;52.496;13.482;2023-03-22T06:22:31;100842.06;;;8.80;100.00
53932;BME280;39844;52.496;13.482;2023-03-22T06:24:56;100856.91;;;8.82;100.00
53932;BME280;39844;52.496;13.482;2023-03-22T06:27:21;100847.34;;;8.84;100.00
53932;BME280;39844;52.496;13.482;2023-03-22T06:29:47;100843.00;;;8.86;100.00
53932;BME280;39844;52.496;13.482;2023-03-22T06:32:12;100850.88;;;8.91;100.00
53932;BME280;39844;52.496;13.482;2023-03-22T06:34:37;100850.00;;;8.94;100.00
53932;BME280;39844;52.496;13.482;2023-03-22T06:37:03;100840.44;;;8.97;100.00
53932;BME280;39844;52.496;13.482;2023-03-22T06:39:28;100846.53;;;9.01;100.00
53932;BME280;39844;52.496;13.482;2023-03-22T06:41:53;100850.06;;;9.04;100.00
53932;BME280;39844;52.496;13.482;2023-03-22T06:44:19;100857.03;;;9.07;100.00
53932;BME280;39844;52.496;13.482;2023-03-22T06:46:44;100862.31;;;9.10;100.00
53932;BME280;39844;52.496;13.482;2023-03-22T06:49:09;100850.09;;;9.12;100.00
53932;BME280;39844;52.496;13.482;2023-03-22T06:51:35;100854.44;;;9.16;100.00
53932;BME280;39844;52.496;13.482;2023-03-22T06:54:00;100855.34;;;9.18;100.00
53932;BME280;39844;52.496;13.482;2023-03-22T06:56:25;100864.97;;;9.20;100.00
53932;BME280;39844;52.496;13.482;2023-03-22T06:58:51;100862.38;;;9.25;100.00
53932;BME280;39844;52.496;13.482;2023-03-22T07:01:17;100854.53;;;9.28;100.00
53932;BME280;39844;52.496;13.482;2023-03-22T07:03:43;100863.28;;;9.33;100.00
53932;BME280;39844;52.496;13.482;2023-03-22T07:06:08;100861.53;;;9.38;100.00
53932;BME280;39844;52.496;13.482;2023-03-22T07:08:34;100855.41;;;9.42;100.00
53932;BME280;39844;52.496;13.482;2023-03-22T07:11:00;100865.94;;;9.48;100.00
53932;BME280;39844;52.496;13.482;2023-03-22T07:13:25;100861.56;;;9.51;100.00
53932;BME280;39844;52.496;13.482;2023-03-22T07:15:58;100865.09;;;9.58;100.00
53932;BME280;39844;52.496;13.482;2023-03-22T07:18:24;100859.84;;;9.63;100.00
53932;BME280;39844;52.496;13.482;2023-03-22T07:20:49;100864.22;;;9.68;100.00
53932;BME280;39844;52.496;13.482;2023-03-22T07:23:15;100855.47;;;9.72;100.00
53932;BME280;39844;52.496;13.482;2023-03-22T07:25:41;100863.34;;;9.77;100.00
53932;BME280;39844;52.496;13.482;2023-03-22T07:28:06;100862.50;;;9.84;100.00
53932;BME280;39844;52.496;13.482;2023-03-22T07:30:32;100857.28;;;9.91;100.00
53932;BME280;39844;52.496;13.482;2023-03-22T07:32:57;100852.88;;;9.99;100.00
53932;BME280;39844;52.496;13.482;2023-03-22T07:35:22;100854.66;;;10.06;100.00
53932;BME280;39844;52.496;13.482;2023-03-22T07:37:48;100861.66;;;10.12;100.00
53932;BME280;39844;52.496;13.482;2023-03-22T07:40:13;100852.94;;;10.16;100.00
53932;BME280;39844;52.496;13.482;2023-03-22T07:42:38;100854.66;;;10.20;100.00
53932;BME280;39844;52.496;13.482;2023-03-22T07:45:04;100853.78;;;10.26;100.00
53932;BME280;39844;52.496;13.482;2023-03-22T07:47:30;100841.53;;;10.31;100.00
53932;BME280;39844;52.496;13.482;2023-03-22T07:49:55;100846.81;;;10.37;100.00
53932;BME280;39844;52.496;13.482;2023-03-22T07:52:20;100842.41;;;10.40;100.00
53932;BME280;39844;52.496;13.482;2023-03-22T07:54:46;100843.28;;;10.47;99.99
53932;BME280;39844;52.496;13.482;2023-03-22T07:57:11;100846.78;;;10.52;99.40
53932;BME280;39844;52.496;13.482;2023-03-22T07:59:36;100840.63;;;10.53;98.57
53932;BME280;39844;52.496;13.482;2023-03-22T08:02:02;100833.63;;;10.61;98.84
53932;BME280;39844;52.496;13.482;2023-03-22T08:04:28;100839.72;;;10.72;99.14
53932;BME280;39844;52.496;13.482;2023-03-22T08:06:53;100824.81;;;10.80;98.35
53932;BME280;39844;52.496;13.482;2023-03-22T08:09:19;100836.16;;;10.88;97.79
53932;BME280;39844;52.496;13.482;2023-03-22T08:11:44;100830.91;;;10.96;97.80
53932;BME280;39844;52.496;13.482;2023-03-22T08:14:09;100823.84;;;11.04;96.76
53932;BME280;39844;52.496;13.482;2023-03-22T08:16:37;100822.94;;;11.09;95.49
53932;BME280;39844;52.496;13.482;2023-03-22T08:19:02;100823.78;;;11.14;94.56
53932;BME280;39844;52.496;13.482;2023-03-22T08:21:30;100822.03;;;11.19;93.82
53932;BME280;39844;52.496;13.482;2023-03-22T08:23:55;100825.50;;;11.24;93.73
53932;BME280;39844;52.496;13.482;2023-03-22T08:26:20;100827.25;;;11.28;93.13
53932;BME280;39844;52.496;13.482;2023-03-22T08:28:46;100823.69;;;11.38;92.78
53932;BME280;39844;52.496;13.482;2023-03-22T08:31:13;100816.59;;;11.50;92.56
53932;BME280;39844;52.496;13.482;2023-03-22T08:33:39;100806.91;;;11.59;91.94
53932;BME280;39844;52.496;13.482;2023-03-22T08:36:06;100804.22;;;11.70;91.88
53932;BME280;39844;52.496;13.482;2023-03-22T08:38:32;100803.25;;;11.80;90.83
53932;BME280;39844;52.496;13.482;2023-03-22T08:40:57;100798.81;;;11.91;90.59
53932;BME280;39844;52.496;13.482;2023-03-22T08:43:23;100795.22;;;12.01;89.90
53932;BME280;39844;52.496;13.482;2023-03-22T08:45:48;100802.13;;;12.11;89.02
53932;BME280;39844;52.496;13.482;2023-03-22T08:48:13;100791.53;;;12.20;88.25
53932;BME280;39844;52.496;13.482;2023-03-22T08:50:39;100798.47;;;12.27;88.37
53932;BME280;39844;52.496;13.482;2023-03-22T08:53:04;100791.41;;;12.32;86.11
53932;BME280;39844;52.496;13.482;2023-03-22T08:55:29;100796.69;;;12.32;85.17
53932;BME280;39844;52.496;13.482;2023-03-22T08:57:54;100790.44;;;12.39;85.12
53932;BME280;39844;52.496;13.482;2023-03-22T09:00:20;100787.75;;;12.47;85.21
53932;BME280;39844;52.496;13.482;2023-03-22T09:02:45;100773.63;;;12.55;84.94
53932;BME280;39844;52.496;13.482;2023-03-22T09:05:10;100768.19;;;12.67;84.56
53932;BME280;39844;52.496;13.482;2023-03-22T09:07:35;100761.09;;;12.76;83.28
53932;BME280;39844;52.496;13.482;2023-03-22T09:10:01;100765.34;;;12.84;82.59
53932;BME280;39844;52.496;13.482;2023-03-22T09:12:28;100759.13;;;12.90;81.51
53932;BME280;39844;52.496;13.482;2023-03-22T09:14:54;100758.19;;;12.95;81.45
53932;BME280;39844;52.496;13.482;2023-03-22T09:17:19;100745.84;;;12.99;79.79
53932;BME280;39844;52.496;13.482;2023-03-22T09:19:44;100750.16;;;13.06;79.76
53932;BME280;39844;52.496;13.482;2023-03-22T09:22:10;100744.75;;;13.15;79.96
53932;BME280;39844;52.496;13.482;2023-03-22T09:24:35;100747.25;;;13.27;79.33
53932;BME280;39844;52.496;13.482;2023-03-22T09:27:00;100755.09;;;13.30;76.88
53932;BME280;39844;52.496;13.482;2023-03-22T09:29:25;100744.38;;;13.41;77.85
53932;BME280;39844;52.496;13.482;2023-03-22T09:31:51;100747.66;;;13.56;77.31
53932;BME280;39844;52.496;13.482;2023-03-22T09:34:16;100737.72;;;13.73;77.17
53932;BME280;39844;52.496;13.482;2023-03-22T09:36:41;100744.56;;;13.83;75.85
53932;BME280;39844;52.496;13.482;2023-03-22T09:39:07;100741.88;;;13.86;74.22
53932;BME280;39844;52.496;13.482;2023-03-22T09:41:59;100739.13;;;13.94;74.30
53932;BME280;39844;52.496;13.482;2023-03-22T09:44:31;100735.41;;;14.04;73.82
53932;BME280;39844;52.496;13.482;2023-03-22T09:47:00;100736.06;;;14.17;73.45
53932;BME280;39844;52.496;13.482;2023-03-22T09:49:29;100732.28;;;14.31;72.90
53932;BME280;39844;52.496;13.482;2023-03-22T09:51:58;100734.72;;;14.43;72.68
53932;BME280;39844;52.496;13.482;2023-03-22T09:54:33;100736.19;;;14.58;73.02
53932;BME280;39844;52.496;13.482;2023-03-22T09:57:04;100724.47;;;14.71;71.30
53932;BME280;39844;52.496;13.482;2023-03-22T09:59:39;100733.22;;;14.73;69.64
53932;BME280;39844;52.496;13.482;2023-03-22T10:02:34;100724.31;;;14.77;70.23
53932;BME280;39844;52.496;13.482;2023-03-22T10:10:32;100718.97;;;14.80;69.05
53932;BME280;39844;52.496;13.482;2023-03-22T10:16:03;100718.56;;;14.98;68.24
53932;BME280;39844;52.496;13.482;2023-03-22T10:18:39;100722.03;;;15.00;68.54
53932;BME280;39844;52.496;13.482;2023-03-22T10:21:08;100707.94;;;15.01;68.13
53932;BME280;39844;52.496;13.482;2023-03-22T10:23:44;100707.81;;;15.07;67.62
53932;BME280;39844;52.496;13.482;2023-03-22T10:29:01;100696.88;;;15.23;67.25
53932;BME280;39844;52.496;13.482;2023-03-22T10:31:27;100689.84;;;15.22;65.46
53932;BME280;39844;52.496;13.482;2023-03-22T10:34:09;100693.38;;;15.22;65.89
53932;BME280;39844;52.496;13.482;2023-03-22T10:36:36;100689.72;;;15.26;66.21
53932;BME280;39844;52.496;13.482;2023-03-22T10:41:52;100684.00;;;15.46;66.15
53932;BME280;39844;52.496;13.482;2023-03-22T10:44:20;100674.78;;;15.62;65.91
53932;BME280;39844;52.496;13.482;2023-03-22T10:46:51;100655.84;;;15.77;65.00
53932;BME280;39844;52.496;13.482;2023-03-22T10:49:31;100659.84;;;15.93;64.63
53932;BME280;39844;52.496;13.482;2023-03-22T10:52:03;100655.31;;;15.97;62.89
53932;BME280;39844;52.496;13.482;2023-03-22T10:54:32;100654.34;;;15.99;62.46
53932;BME280;39844;52.496;13.482;2023-03-22T10:56:57;100658.00;;;15.95;62.67
53932;BME280;39844;52.496;13.482;2023-03-22T11:02:30;100643.53;;;16.08;62.86
53932;BME280;39844;52.496;13.482;2023-03-22T11:04:58;100643.47;;;16.11;62.51
53932;BME280;39844;52.496;13.482;2023-03-22T11:07:32;100633.47;;;16.21;63.41
53932;BME280;39844;52.496;13.482;2023-03-22T11:10:21;100642.94;;;16.29;63.06
53932;BME280;39844;52.496;13.482;2023-03-22T11:13:16;100639.34;;;16.30;61.89
53932;BME280;39844;52.496;13.482;2023-03-22T11:15:48;100638.47;;;16.30;59.60
53932;BME280;39844;52.496;13.482;2023-03-22T11:18:16;100631.47;;;16.29;59.99
53932;BME280;39844;52.496;13.482;2023-03-22T11:20:52;100629.72;;;16.28;59.87
53932;BME280;39844;52.496;13.482;2023-03-22T11:23:19;100626.09;;;16.32;60.43
53932;BME280;39844;52.496;13.482;2023-03-22T11:25:47;100627.59;;;16.40;59.87
53932;BME280;39844;52.496;13.482;2023-03-22T11:28:45;100641.56;;;16.45;58.31
53932;BME280;39844;52.496;13.482;2023-03-22T11:31:18;100625.66;;;16.45;59.21
53932;BME280;39844;52.496;13.482;2023-03-22T11:33:58;100628.53;;;16.38;57.96
53932;BME280;39844;52.496;13.482;2023-03-22T11:36:24;100623.53;;;16.29;57.76
53932;BME280;39844;52.496;13.482;2023-03-22T11:39:05;100623.75;;;16.21;58.66
53932;BME280;39844;52.496;13.482;2023-03-22T11:41:36;100624.69;;;16.19;58.63
53932;BME280;39844;52.496;13.482;2023-03-22T11:44:11;100626.41;;;16.20;58.95
53932;BME280;39844;52.496;13.482;2023-03-22T11:46:38;100621.13;;;16.20;58.06
53932;BME280;39844;52.496;13.482;2023-03-22T11:49:11;100622.81;;;16.22;58.76
53932;BME280;39844;52.496;13.482;2023-03-22T11:51:39;100628.00;;;16.27;59.12
53932;BME280;39844;52.496;13.482;2023-03-22T11:54:12;100618.25;;;16.27;58.46
53932;BME280;39844;52.496;13.482;2023-03-22T11:56:46;100611.69;;;16.40;58.51
53932;BME280;39844;52.496;13.482;2023-03-22T11:59:14;100606.03;;;16.54;57.69
53932;BME280;39844;52.496;13.482;2023-03-22T12:01:56;100604.00;;;16.62;57.47
53932;BME280;39844;52.496;13.482;2023-03-22T12:04:27;100602.47;;;16.83;56.19
53932;BME280;39844;52.496;13.482;2023-03-22T12:06:58;100597.78;;;16.91;56.39
53932;BME280;39844;52.496;13.482;2023-03-22T12:09:31;100593.72;;;17.07;55.88
53932;BME280;39844;52.496;13.482;2023-03-22T12:12:00;100594.88;;;17.52;55.89
53932;BME280;39844;52.496;13.482;2023-03-22T12:14:38;100583.94;;;17.86;54.46
53932;BME280;39844;52.496;13.482;2023-03-22T12:17:10;100582.94;;;18.13;53.78
53932;BME280;39844;52.496;13.482;2023-03-22T12:19:47;100575.44;;;18.24;51.70
53932;BME280;39844;52.496;13.482;2023-03-22T12:22:17;100589.53;;;18.26;50.95
53932;BME280;39844;52.496;13.482;2023-03-22T12:24:44;100577.50;;;18.16;50.54
53932;BME280;39844;52.496;13.482;2023-03-22T12:27:17;100579.97;;;18.21;50.82
53932;BME280;39844;52.496;13.482;2023-03-22T12:29:55;100567.41;;;18.49;51.42
53932;BME280;39844;52.496;13.482;2023-03-22T12:32:33;100568.97;;;18.76;50.43
53932;BME280;39844;52.496;13.482;2023-03-22T12:34:59;100559.69;;;19.08;49.68
53932;BME280;39844;52.496;13.482;2023-03-22T12:37:32;100560.94;;;19.21;48.59
53932;BME280;39844;52.496;13.482;2023-03-22T12:40:03;100546.19;;;19.34;48.75
53932;BME280;39844;52.496;13.482;2023-03-22T12:42:36;100547.16;;;19.32;47.86
53932;BME280;39844;52.496;13.482;2023-03-22T12:45:25;100535.09;;;19.23;47.63
53932;BME280;39844;52.496;13.482;2023-03-22T12:48:03;100542.09;;;19.26;46.93
53932;BME280;39844;52.496;13.482;2023-03-22T12:50:35;100533.56;;;19.18;47.14
53932;BME280;39844;52.496;13.482;2023-03-22T12:53:03;100530.63;;;19.04;47.33
53932;BME280;39844;52.496;13.482;2023-03-22T12:55:37;100527.31;;;19.19;48.82
53932;BME280;39844;52.496;13.482;2023-03-22T12:58:07;100530.69;;;19.02;48.22
53932;BME280;39844;52.496;13.482;2023-03-22T13:05:40;100516.78;;;18.96;49.49
53932;BME280;39844;52.496;13.482;2023-03-22T13:08:06;100511.06;;;19.05;48.72
53932;BME280;39844;52.496;13.482;2023-03-22T13:23:33;100520.19;;;18.56;48.17
53932;BME280;39844;52.496;13.482;2023-03-22T13:26:01;100523.97;;;18.50;48.08
53932;BME280;39844;52.496;13.482;2023-03-22T13:28:27;100513.03;;;18.35;48.20
53932;BME280;39844;52.496;13.482;2023-03-22T13:30:55;100518.06;;;18.19;48.60
53932;BME280;39844;52.496;13.482;2023-03-22T13:33:29;100513.44;;;18.01;48.91
53932;BME280;39844;52.496;13.482;2023-03-22T13:35:56;100517.28;;;17.94;49.34
53932;BME280;39844;52.496;13.482;2023-03-22T13:38:25;100509.78;;;18.05;48.32
53932;BME280;39844;52.496;13.482;2023-03-22T13:43:29;100508.31;;;18.41;47.59
53932;BME280;39844;52.496;13.482;2023-03-22T13:59:17;100510.84;;;18.22;46.87
53932;BME280;39844;52.496;13.482;2023-03-22T14:01:52;100504.09;;;18.14;46.82
53932;BME280;39844;52.496;13.482;2023-03-22T14:04:24;100502.59;;;18.07;47.56
53932;BME280;39844;52.496;13.482;2023-03-22T14:06:57;100493.06;;;18.01;48.49
53932;BME280;39844;52.496;13.482;2023-03-22T14:09:30;100493.28;;;17.95;48.14
53932;BME280;39844;52.496;13.482;2023-03-22T14:12:06;100494.34;;;17.91;48.18
53932;BME280;39844;52.496;13.482;2023-03-22T14:14:43;100481.25;;;17.87;48.02
53932;BME280;39844;52.496;13.482;2023-03-22T14:17:14;100494.53;;;17.87;48.51